Terminal Aerodrome Forecast
Issued by NWS

Home | Current Version | Previous Version | Text Only | Print | Product List | Glossary On
Versions: 1 2 3 4 5 6 7 8 9 10 11 12 13 14 15 16 17 18 19 20 21
000
FTUS46 KEKA 291751
TAFCEC
TAF
KCEC 291751Z 2918/3018 17012G19KT P6SM VCSH SCT025 SCT040 BKN080
     FM300000 17012KT 5SM BR SCT004 BKN015 BKN025
     FM300200 16012G19KT 4SM BR SCT004 BKN007 OVC012
     FM300800 17014G22KT 3SM BR VCSH BKN004 OVC007
     FM301100 18016G24KT 2SM -SHRA BR BKN004 OVC007=

USA.gov is the U.S. government's official web portal to all federal, state and local government web resources and services.